首页
METAR-TAF:

METAR-TAF

机场 :

梅里達, 墨西哥

纬度: 20-56N, 经度: 089-39W, 海拔: 10米

当前天气观测

该预报发布于24分钟前的10:51 UTC
风速10节,风向
温度 22°C
湿度 94%
气压 1017 hPa
能見度: 11.3公里
天空无云

METAR: MMMD 111051Z 10010KT 7SM SKC 22/21 A3004

时间: 05:15 (11:15 UTC)

预报

该预报发布于6小时和25分钟前的04:50 UTC
预报有效从11日的 06点(UTC)到 12日的 12点(UTC)
风速5节,风向东转东南
能見度: 10公里
天空无云
从 11日的 1600点(UTC)
风速10节,风向东转东南
能見度: 10公里
多云层高于2000英尺
几率 40%
从 11日的 21点(UTC)到 12日的 01点(UTC)
能見度: 8.0公里
从 12日的 0300点(UTC)
风速5节,风向
能見度: 10公里
多云层高于3000英尺

TAF: MMMD 110450Z 1106/1212 11005KT P6SM SKC TX31/1120Z TN19/1112Z FM111600 12010KT P6SM BKN020 PROB40 1121/1201 5SM RA FM120300 08005KT P6SM BKN030

超过4000个机场的气象观测和天气预报(METAR&TAF报告)。

可查询的气象台以黄色和红色小点在地图上表示。

将鼠标移到小点上方,可查看气象台名称。

然后点击查看天气观测和预报。

如需切换地图:点击带黑十字的绿色按钮放大地图;点击带横线的绿色按钮缩小地图;或者点击绿色箭头查看邻近地区的地图。


METAR-TAF: